Time;durP1;ratioP1;P1;durP2;ratioP2;P2;SDS_P1;SDS_P2;PMS_P1;PMS_P2;Temp;Humidity;BMP_temperature;BMP_pressure;BME280_temperature;BME280_humidity;BME280_pressure;Samples;Min_cycle;Max_cycle;Signal;HPM_P1;HPM_P2
2022/07/15 00:02:05;;;;;;;1.10;1.00;;;15.60;89.10;;;;;;5052100;28;20794;-83
2022/07/15 00:04:31;;;;;;;1.70;1.00;;;15.60;89.30;;;;;;5050922;28;20457;-83
2022/07/15 00:06:57;;;;;;;1.70;1.07;;;15.60;89.60;;;;;;5052775;28;20434;-82
2022/07/15 00:10:13;;;;;;;1.53;1.30;;;15.60;89.80;;;;;;5051390;28;20519;-83
2022/07/15 00:12:08;;;;;;;0.80;0.80;;;15.60;90.00;;;;;;5052526;28;20184;-82
2022/07/15 00:14:34;;;;;;;1.10;1.00;;;15.50;90.50;;;;;;5033106;28;20423;-82
2022/07/15 00:16:59;;;;;;;1.33;1.27;;;15.50;90.30;;;;;;5062707;28;20605;-83
2022/07/15 00:19:25;;;;;;;1.00;0.90;;;15.50;90.20;;;;;;5051316;28;20224;-82
2022/07/15 00:21:50;;;;;;;1.40;1.30;;;15.50;90.20;;;;;;5062604;28;20266;-82
2022/07/15 00:24:16;;;;;;;10.00;1.70;;;15.40;91.00;;;;;;5067237;28;20176;-83
2022/07/15 00:26:42;;;;;;;1.10;1.00;;;15.40;91.00;;;;;;5051199;28;20184;-82
2022/07/15 00:29:07;;;;;;;0.90;0.80;;;15.40;91.30;;;;;;5052278;28;20207;-82
2022/07/15 00:31:33;;;;;;;1.10;1.00;;;15.30;91.00;;;;;;5051332;28;20176;-82
2022/07/15 00:33:58;;;;;;;1.13;1.03;;;15.30;91.00;;;;;;5032339;28;20611;-82
2022/07/15 00:36:24;;;;;;;1.10;1.00;;;15.20;91.10;;;;;;5058354;28;20184;-82
2022/07/15 00:38:50;;;;;;;1.27;1.20;;;15.20;91.00;;;;;;5051822;28;20272;-82
2022/07/15 00:41:15;;;;;;;1.30;1.20;;;15.20;90.80;;;;;;5051424;28;20196;-82
2022/07/15 00:43:41;;;;;;;1.70;1.30;;;15.10;90.90;;;;;;5030078;28;20188;-84
2022/07/15 00:46:07;;;;;;;0.90;0.90;;;15.10;90.90;;;;;;5051514;28;20188;-82
2022/07/15 00:48:33;;;;;;;1.10;1.00;;;15.10;91.20;;;;;;5044518;28;20218;-82
2022/07/15 00:50:59;;;;;;;1.50;1.13;;;15.10;91.10;;;;;;5050025;28;20624;-82
2022/07/15 00:53:28;;;;;;;1.03;1.00;;;15.00;91.20;;;;;;5035123;28;20454;-82
2022/07/15 00:55:58;;;;;;;1.30;1.20;;;15.00;91.20;;;;;;5050715;28;20423;-82
2022/07/15 00:58:26;;;;;;;1.37;1.27;;;15.00;91.20;;;;;;5050389;28;20473;-82
2022/07/15 01:00:54;;;;;;;1.40;1.30;;;15.00;91.60;;;;;;5051074;28;20916;-82
2022/07/15 01:03:20;;;;;;;2.40;1.60;;;15.00;91.50;;;;;;5052490;28;20457;-82
2022/07/15 01:05:47;;;;;;;1.17;1.07;;;15.00;91.70;;;;;;5061637;28;20418;-82
2022/07/15 01:08:14;;;;;;;1.30;1.20;;;15.00;91.90;;;;;;5057282;28;20249;-82
2022/07/15 01:10:41;;;;;;;1.50;1.40;;;15.00;92.00;;;;;;5045668;28;20629;-82
2022/07/15 01:13:06;;;;;;;1.20;1.10;;;15.00;91.80;;;;;;5066744;28;20936;-82
2022/07/15 01:15:32;;;;;;;1.07;1.00;;;15.00;91.90;;;;;;5049231;28;20484;-82
2022/07/15 01:18:00;;;;;;;1.00;0.90;;;15.00;91.90;;;;;;5049855;28;20677;-82
2022/07/15 01:20:25;;;;;;;1.37;1.27;;;15.00;91.80;;;;;;5050622;28;20422;-82
2022/07/15 01:22:51;;;;;;;1.53;1.43;;;15.00;91.70;;;;;;5052646;28;20499;-82
2022/07/15 01:25:17;;;;;;;1.37;1.03;;;15.00;91.80;;;;;;5051501;28;20184;-82
2022/07/15 01:27:42;;;;;;;1.10;1.00;;;15.00;91.80;;;;;;5068151;28;20620;-82
2022/07/15 01:30:21;;;;;;;1.13;1.03;;;15.00;92.30;;;;;;5088612;28;20593;-86
2022/07/15 01:32:47;;;;;;;1.23;1.17;;;14.90;92.20;;;;;;5088634;28;20832;-85
2022/07/15 01:35:12;;;;;;;1.40;1.10;;;14.90;92.50;;;;;;5086880;28;20178;-86
2022/07/15 01:37:38;;;;;;;1.80;1.70;;;14.90;92.60;;;;;;5086490;28;20252;-87
2022/07/15 01:40:05;;;;;;;1.20;1.10;;;14.90;92.60;;;;;;5087306;28;20182;-87
2022/07/15 01:42:32;;;;;;;1.20;1.10;;;14.80;92.70;;;;;;5087377;28;20192;-86
2022/07/15 01:44:57;;;;;;;2.60;1.50;;;14.80;93.10;;;;;;5086835;28;20416;-87
2022/07/15 01:47:23;;;;;;;1.53;1.30;;;14.80;93.40;;;;;;5087142;28;20523;-86
2022/07/15 01:49:48;;;;;;;0.93;0.80;;;14.80;93.10;;;;;;5086581;28;20209;-86
2022/07/15 01:52:14;;;;;;;0.93;0.87;;;14.70;93.20;;;;;;5086903;28;20632;-84
2022/07/15 01:54:40;;;;;;;1.30;1.20;;;14.70;93.40;;;;;;5086712;28;20182;-87
2022/07/15 01:57:05;;;;;;;1.50;1.30;;;14.60;93.50;;;;;;5086146;28;20178;-87
2022/07/15 01:59:31;;;;;;;1.23;1.13;;;14.60;93.60;;;;;;5080642;28;20320;-87
2022/07/15 02:01:57;;;;;;;1.10;1.00;;;14.60;93.80;;;;;;5086292;28;20178;-87
2022/07/15 02:04:23;;;;;;;1.30;1.20;;;14.60;94.00;;;;;;5086520;28;20705;-86
2022/07/15 02:06:49;;;;;;;0.90;0.90;;;14.60;94.20;;;;;;5086513;28;20497;-86
2022/07/15 02:09:15;;;;;;;1.17;1.10;;;14.50;94.10;;;;;;5086369;28;20222;-87
2022/07/15 02:11:41;;;;;;;1.00;0.93;;;14.50;94.20;;;;;;5074449;28;20418;-87
2022/07/15 02:14:07;;;;;;;0.97;0.93;;;14.40;94.40;;;;;;5086045;28;20450;-87
2022/07/15 02:16:33;;;;;;;1.23;1.13;;;14.40;94.60;;;;;;5086628;28;20420;-86
2022/07/15 02:19:00;;;;;;;1.30;1.20;;;14.40;94.70;;;;;;5086587;28;20195;-87
2022/07/15 02:21:26;;;;;;;2.47;1.50;;;14.30;94.90;;;;;;5088434;28;20421;-86
2022/07/15 02:23:57;;;;;;;1.00;1.00;;;14.30;95.00;;;;;;5086756;28;20447;-86
2022/07/15 02:26:22;;;;;;;1.83;1.30;;;14.30;95.10;;;;;;5086960;28;20420;-83
2022/07/15 02:28:48;;;;;;;1.30;1.10;;;14.30;95.40;;;;;;5086566;28;20969;-83
2022/07/15 02:31:14;;;;;;;1.30;1.20;;;14.30;95.60;;;;;;5085976;28;20175;-84
2022/07/15 02:33:41;;;;;;;1.13;1.03;;;14.30;95.60;;;;;;5085815;28;20182;-83
2022/07/15 02:36:07;;;;;;;2.13;1.10;;;14.20;95.80;;;;;;5085413;28;20470;-83
2022/07/15 02:38:33;;;;;;;1.00;0.90;;;14.20;95.80;;;;;;5085393;28;20444;-83
2022/07/15 02:40:59;;;;;;;3.43;2.20;;;14.20;96.00;;;;;;5075829;28;20429;-83
2022/07/15 02:43:24;;;;;;;1.00;0.83;;;14.20;96.10;;;;;;5072393;28;20212;-84
2022/07/15 02:45:50;;;;;;;1.20;1.10;;;14.20;96.10;;;;;;5071743;28;20552;-84
2022/07/15 02:48:15;;;;;;;1.23;1.13;;;14.20;96.10;;;;;;5073296;28;20211;-84
2022/07/15 02:50:41;;;;;;;1.10;1.00;;;14.20;96.30;;;;;;5071524;28;20186;-84
2022/07/15 02:53:08;;;;;;;1.10;1.00;;;14.10;96.50;;;;;;5071955;28;20256;-83
2022/07/15 02:55:34;;;;;;;1.13;1.03;;;14.10;96.60;;;;;;5059359;28;20422;-83
2022/07/15 02:57:59;;;;;;;1.47;1.37;;;14.10;96.80;;;;;;5073948;28;20520;-83
2022/07/15 03:00:25;;;;;;;4.07;1.23;;;14.00;97.00;;;;;;5071699;28;20261;-83
2022/07/15 03:02:52;;;;;;;0.97;0.97;;;14.00;97.20;;;;;;5073231;28;20209;-83
2022/07/15 03:05:18;;;;;;;1.50;1.20;;;14.00;97.30;;;;;;5072199;28;20401;-83
2022/07/15 03:07:45;;;;;;;2.27;1.70;;;14.00;97.30;;;;;;5061212;28;20444;-84
2022/07/15 03:10:11;;;;;;;1.23;1.13;;;14.00;97.30;;;;;;5071434;28;20845;-84
2022/07/15 03:12:37;;;;;;;1.37;1.27;;;14.00;97.30;;;;;;5071200;28;20414;-82
2022/07/15 03:15:03;;;;;;;1.30;1.20;;;14.00;97.30;;;;;;5072693;28;20422;-82
2022/07/15 03:17:29;;;;;;;1.60;1.50;;;13.90;97.30;;;;;;5071648;28;20430;-82
2022/07/15 03:19:55;;;;;;;1.40;1.30;;;13.90;97.30;;;;;;5070960;28;20444;-82
2022/07/15 03:22:21;;;;;;;1.50;1.40;;;13.90;97.30;;;;;;5072086;28;20588;-82
2022/07/15 03:24:48;;;;;;;3.10;2.10;;;13.90;97.30;;;;;;5071931;28;20429;-82
2022/07/15 03:27:15;;;;;;;1.60;1.50;;;13.90;97.30;;;;;;5071759;28;20425;-84
2022/07/15 03:29:41;;;;;;;1.10;1.10;;;13.90;97.30;;;;;;5070995;28;20465;-82
2022/07/15 03:32:07;;;;;;;2.43;1.73;;;13.80;97.30;;;;;;5071576;28;20775;-82
2022/07/15 03:34:32;;;;;;;2.10;1.53;;;13.80;97.30;;;;;;5063006;28;20183;-82
2022/07/15 03:36:59;;;;;;;1.07;1.00;;;13.80;97.30;;;;;;5078625;28;20187;-82
2022/07/15 03:39:25;;;;;;;2.00;1.90;;;13.80;97.30;;;;;;5074810;28;20313;-84
2022/07/15 03:41:51;;;;;;;1.60;1.53;;;13.80;97.30;;;;;;5062225;28;20946;-83
2022/07/15 03:44:17;;;;;;;1.10;1.10;;;13.80;97.30;;;;;;5062447;28;20475;-85
2022/07/15 03:46:45;;;;;;;1.50;1.40;;;13.80;97.30;;;;;;5062012;28;20422;-83
2022/07/15 03:49:11;;;;;;;2.93;1.40;;;13.80;97.30;;;;;;5057416;28;20568;-85
2022/07/15 03:51:37;;;;;;;1.20;1.10;;;13.80;97.30;;;;;;5055344;28;20413;-83
2022/07/15 03:54:04;;;;;;;1.33;1.23;;;13.80;97.30;;;;;;5055755;28;20801;-85
2022/07/15 03:56:30;;;;;;;5.37;1.77;;;13.80;97.30;;;;;;5056392;28;20171;-82
2022/07/15 03:58:57;;;;;;;1.90;1.80;;;13.80;97.30;;;;;;5058951;28;20726;-85
2022/07/15 04:01:23;;;;;;;1.80;1.70;;;13.80;97.30;;;;;;5058781;28;20940;-84
2022/07/15 04:03:50;;;;;;;1.10;1.00;;;13.80;97.30;;;;;;5062626;28;20413;-83
2022/07/15 04:06:17;;;;;;;1.80;1.13;;;13.80;97.30;;;;;;5058915;28;20429;-87
2022/07/15 04:08:44;;;;;;;1.40;1.30;;;13.80;97.30;;;;;;5060200;28;20496;-85
2022/07/15 04:11:10;;;;;;;1.27;1.17;;;13.90;97.30;;;;;;5062336;28;20418;-83
2022/07/15 04:13:36;;;;;;;2.80;1.77;;;13.90;97.30;;;;;;5063020;28;20418;-83
2022/07/15 04:16:02;;;;;;;1.33;1.30;;;13.90;97.30;;;;;;5059055;28;20814;-83
2022/07/15 04:18:28;;;;;;;1.20;1.13;;;13.90;97.30;;;;;;5062321;28;21038;-84
2022/07/15 04:20:53;;;;;;;6.53;1.87;;;13.90;97.30;;;;;;5064680;28;20668;-83
2022/07/15 04:23:19;;;;;;;1.37;1.27;;;14.00;97.30;;;;;;5059314;28;20195;-84
2022/07/15 04:25:45;;;;;;;1.23;1.10;;;14.00;97.30;;;;;;5060613;28;20265;-84
2022/07/15 04:28:11;;;;;;;2.90;1.30;;;14.00;97.30;;;;;;5056308;28;20298;-83
2022/07/15 04:30:36;;;;;;;2.00;1.87;;;14.00;97.30;;;;;;5069747;28;20467;-84
2022/07/15 04:33:02;;;;;;;1.20;1.20;;;14.10;97.30;;;;;;5067099;28;20225;-83
2022/07/15 04:35:28;;;;;;;1.17;1.07;;;14.10;97.30;;;;;;5061986;28;20554;-83
2022/07/15 04:37:53;;;;;;;22.80;1.80;;;14.20;97.30;;;;;;5071762;28;20278;-83
2022/07/15 04:40:19;;;;;;;1.10;1.00;;;14.20;97.30;;;;;;5063976;28;20954;-84
2022/07/15 04:42:45;;;;;;;1.20;1.10;;;14.30;97.30;;;;;;5070454;28;20608;-82
2022/07/15 04:45:10;;;;;;;1.67;1.60;;;14.30;97.30;;;;;;5066440;28;20175;-83
2022/07/15 04:47:36;;;;;;;3.87;1.60;;;14.30;97.30;;;;;;5057721;28;20707;-83
2022/07/15 04:52:47;;;;;;;1.20;1.10;;;14.40;97.30;;;;;;5066240;28;20201;-83
2022/07/15 04:55:14;;;;;;;1.23;1.13;;;14.40;97.30;;;;;;5067694;28;20405;-82
2022/07/15 04:57:41;;;;;;;3.83;1.70;;;14.40;97.30;;;;;;5068061;28;20790;-83
2022/07/15 05:00:08;;;;;;;1.30;1.23;;;14.40;97.30;;;;;;5069315;28;20471;-83
2022/07/15 05:02:34;;;;;;;1.47;1.37;;;14.40;97.30;;;;;;5068877;28;20417;-83
2022/07/15 05:04:59;;;;;;;4.50;2.23;;;14.50;97.30;;;;;;5063524;28;20950;-83
2022/07/15 05:07:25;;;;;;;1.33;1.20;;;14.50;97.30;;;;;;5069282;28;20301;-82
2022/07/15 05:09:51;;;;;;;1.33;1.30;;;14.50;97.30;;;;;;5057778;28;20200;-83
2022/07/15 05:12:16;;;;;;;1.57;1.47;;;14.50;97.30;;;;;;5068241;28;20183;-82
2022/07/15 05:14:42;;;;;;;1.10;1.00;;;14.50;97.30;;;;;;5069278;28;20203;-83
2022/07/15 05:17:08;;;;;;;1.00;1.00;;;14.50;97.30;;;;;;5068858;28;20293;-83
2022/07/15 05:19:34;;;;;;;12.23;2.23;;;14.50;97.30;;;;;;5069231;28;20183;-83
2022/07/15 05:22:00;;;;;;;2.03;1.70;;;14.50;97.30;;;;;;5070120;28;20788;-83
2022/07/15 05:24:26;;;;;;;3.00;1.40;;;14.60;97.30;;;;;;5065604;28;20175;-83
2022/07/15 05:26:51;;;;;;;1.40;1.30;;;14.60;97.30;;;;;;5069037;28;20417;-83
2022/07/15 05:29:17;;;;;;;1.17;1.07;;;14.70;97.30;;;;;;5063691;28;20595;-83
2022/07/15 05:31:43;;;;;;;2.10;1.40;;;14.70;97.30;;;;;;5065110;28;20636;-83
2022/07/15 05:34:09;;;;;;;5.77;2.13;;;14.80;97.30;;;;;;5070101;28;20629;-83
2022/07/15 05:36:35;;;;;;;1.50;1.40;;;14.80;97.30;;;;;;5059877;28;20186;-82
2022/07/15 05:39:00;;;;;;;1.40;1.30;;;14.90;97.30;;;;;;5068602;28;20930;-83
2022/07/15 05:41:26;;;;;;;1.50;1.20;;;14.90;97.30;;;;;;5068852;28;20823;-82
2022/07/15 05:43:52;;;;;;;4.53;2.33;;;14.90;97.30;;;;;;5064376;28;20171;-83
2022/07/15 05:46:17;;;;;;;1.83;1.20;;;15.00;97.30;;;;;;5069158;28;20182;-82
2022/07/15 05:48:43;;;;;;;1.30;1.20;;;15.00;97.30;;;;;;5065114;28;20211;-82
2022/07/15 05:51:09;;;;;;;0.90;0.87;;;15.10;97.30;;;;;;5069597;28;20179;-83
2022/07/15 05:53:34;;;;;;;1.10;1.00;;;15.10;97.30;;;;;;5068767;28;20468;-82
2022/07/15 05:56:00;;;;;;;1.67;1.30;;;15.20;97.30;;;;;;5061855;28;20184;-83
2022/07/15 05:58:25;;;;;;;1.33;1.30;;;15.20;97.30;;;;;;5066515;28;20693;-82
2022/07/15 06:00:52;;;;;;;1.30;1.20;;;15.30;97.30;;;;;;5070016;28;20608;-82
2022/07/15 06:03:18;;;;;;;1.20;1.10;;;15.30;97.30;;;;;;5069164;28;20183;-83
2022/07/15 06:05:44;;;;;;;1.30;1.20;;;15.40;97.30;;;;;;5069315;28;20482;-83
2022/07/15 06:08:10;;;;;;;2.10;1.50;;;15.40;97.30;;;;;;5068260;28;20519;-83
2022/07/15 06:10:37;;;;;;;1.50;1.40;;;15.40;97.30;;;;;;5068788;28;20175;-81
2022/07/15 06:13:03;;;;;;;1.00;0.90;;;15.50;96.90;;;;;;5068842;28;20413;-83
2022/07/15 06:15:29;;;;;;;4.30;2.20;;;15.50;96.90;;;;;;5068887;28;20425;-82
2022/07/15 06:17:56;;;;;;;1.10;1.00;;;15.50;97.00;;;;;;5072672;28;20441;-82
2022/07/15 06:20:22;;;;;;;2.23;1.13;;;15.60;97.20;;;;;;5073608;28;20922;-82
2022/07/15 06:22:47;;;;;;;1.40;1.30;;;15.60;96.80;;;;;;5073229;28;20457;-82
2022/07/15 06:25:13;;;;;;;1.03;0.93;;;15.70;95.90;;;;;;5072158;28;20467;-82
2022/07/15 06:27:39;;;;;;;1.70;1.57;;;15.70;95.50;;;;;;5072485;28;20253;-82
2022/07/15 06:30:06;;;;;;;0.80;0.80;;;15.70;95.30;;;;;;5073371;28;20227;-83
2022/07/15 06:32:31;;;;;;;1.13;1.13;;;15.80;95.00;;;;;;5072870;28;20239;-83
2022/07/15 06:34:57;;;;;;;7.83;1.57;;;15.90;95.10;;;;;;5072652;28;20962;-83
2022/07/15 06:37:22;;;;;;;1.10;1.00;;;15.90;95.00;;;;;;5073156;28;20190;-83
2022/07/15 06:39:48;;;;;;;1.20;1.10;;;16.00;94.40;;;;;;5072166;28;20175;-83
2022/07/15 06:42:14;;;;;;;1.67;1.57;;;16.00;94.30;;;;;;5073284;28;20261;-83
2022/07/15 06:44:40;;;;;;;1.10;1.00;;;16.00;94.70;;;;;;5059896;28;20511;-82
2022/07/15 06:47:06;;;;;;;3.60;1.50;;;16.10;94.40;;;;;;5072400;28;20177;-82
2022/07/15 06:49:34;;;;;;;1.23;1.13;;;16.20;94.30;;;;;;5071216;28;20195;-82
2022/07/15 06:52:00;;;;;;;1.13;1.03;;;16.30;94.30;;;;;;5072347;28;21439;-83
2022/07/15 06:54:25;;;;;;;0.93;0.83;;;16.30;93.40;;;;;;5071806;28;20424;-83
2022/07/15 06:56:51;;;;;;;1.20;1.10;;;16.40;93.00;;;;;;5072487;28;20463;-82
2022/07/15 06:59:17;;;;;;;1.87;1.37;;;16.40;93.00;;;;;;5072136;28;20586;-83
2022/07/15 07:01:42;;;;;;;1.47;1.37;;;16.50;92.40;;;;;;5073070;28;20188;-82
2022/07/15 07:04:08;;;;;;;1.57;1.47;;;16.50;92.00;;;;;;5071896;28;20171;-83
2022/07/15 07:06:33;;;;;;;1.57;1.27;;;16.50;92.30;;;;;;5060246;28;20192;-83
2022/07/15 07:08:59;;;;;;;1.13;1.03;;;16.60;93.10;;;;;;5071307;28;20207;-82
2022/07/15 07:11:25;;;;;;;0.70;0.70;;;16.70;92.90;;;;;;5073986;28;20904;-82
2022/07/15 07:13:51;;;;;;;0.93;0.87;;;16.80;92.30;;;;;;5071301;28;20171;-83
2022/07/15 07:16:17;;;;;;;1.73;1.50;;;16.90;91.70;;;;;;5071089;28;20437;-83
2022/07/15 07:18:45;;;;;;;1.00;0.90;;;16.90;91.80;;;;;;5071127;28;20206;-83
2022/07/15 07:21:11;;;;;;;1.13;1.07;;;17.00;91.30;;;;;;5058332;28;20484;-83
2022/07/15 07:23:39;;;;;;;1.03;1.00;;;16.90;91.30;;;;;;5071004;28;20935;-82
2022/07/15 07:26:06;;;;;;;1.20;1.10;;;17.00;91.40;;;;;;5072414;28;20521;-83
2022/07/15 07:28:32;;;;;;;1.10;1.00;;;17.00;91.40;;;;;;5072133;28;20476;-83
2022/07/15 07:30:58;;;;;;;0.90;0.80;;;17.00;90.70;;;;;;5070990;28;20509;-83
2022/07/15 07:33:24;;;;;;;1.00;0.90;;;17.00;89.00;;;;;;5070625;28;20437;-83
2022/07/15 07:35:50;;;;;;;1.00;0.90;;;17.10;89.10;;;;;;5072600;28;20409;-83
2022/07/15 07:38:15;;;;;;;1.77;1.30;;;17.10;88.70;;;;;;5071661;28;20191;-83
2022/07/15 07:40:41;;;;;;;1.10;1.00;;;17.20;87.90;;;;;;5070133;28;20512;-82
2022/07/15 07:43:07;;;;;;;2.63;0.83;;;17.20;88.20;;;;;;5051441;28;20849;-83
2022/07/15 07:45:32;;;;;;;1.10;1.10;;;17.20;87.20;;;;;;5064489;28;20673;-83
2022/07/15 07:47:58;;;;;;;0.90;0.80;;;17.20;84.80;;;;;;5069915;28;20554;-83
2022/07/15 07:50:24;;;;;;;1.20;1.10;;;17.30;84.10;;;;;;5072087;28;20207;-82
2022/07/15 07:52:50;;;;;;;1.17;1.07;;;17.30;84.30;;;;;;5070636;28;20240;-83
2022/07/15 07:55:15;;;;;;;0.80;0.80;;;17.30;81.60;;;;;;5072486;28;20975;-83
2022/07/15 07:57:53;;;;;;;1.13;1.03;;;17.30;81.70;;;;;;5070103;28;20195;-82
2022/07/15 08:00:19;;;;;;;1.00;0.90;;;17.30;81.20;;;;;;5055896;28;20188;-82
2022/07/15 08:02:45;;;;;;;1.10;1.00;;;17.30;80.80;;;;;;5064526;28;20436;-82
2022/07/15 08:05:11;;;;;;;0.90;0.80;;;17.40;80.50;;;;;;5057994;28;20594;-82
2022/07/15 08:07:37;;;;;;;1.10;1.00;;;17.50;80.70;;;;;;5064636;28;20456;-82
2022/07/15 08:10:04;;;;;;;1.43;1.33;;;17.60;80.90;;;;;;5057247;28;20469;-83
2022/07/15 08:12:30;;;;;;;1.77;1.30;;;17.70;81.80;;;;;;5070905;28;20961;-82
2022/07/15 08:14:55;;;;;;;4.87;1.33;;;17.70;79.50;;;;;;5070260;28;20958;-83
2022/07/15 08:17:22;;;;;;;1.00;0.90;;;17.80;79.60;;;;;;5071063;28;20244;-82
2022/07/15 08:19:48;;;;;;;3.47;1.00;;;17.80;79.10;;;;;;5071610;28;20245;-83
2022/07/15 08:22:14;;;;;;;1.10;1.00;;;17.80;79.60;;;;;;5070213;28;20501;-83
2022/07/15 08:24:40;;;;;;;1.20;1.10;;;17.80;78.70;;;;;;5069132;28;20845;-82
2022/07/15 08:27:06;;;;;;;1.10;1.00;;;17.90;79.20;;;;;;5059665;28;20188;-83
2022/07/15 08:29:31;;;;;;;1.00;0.90;;;17.90;79.40;;;;;;5068061;28;20473;-83
2022/07/15 08:31:57;;;;;;;1.00;0.93;;;17.90;79.30;;;;;;5059385;28;20182;-83
2022/07/15 08:34:23;;;;;;;1.00;0.90;;;17.90;78.80;;;;;;5070438;28;20264;-82
2022/07/15 08:36:48;;;;;;;2.03;1.20;;;17.90;78.60;;;;;;5069605;28;20266;-81
2022/07/15 08:39:15;;;;;;;1.10;1.00;;;17.90;78.30;;;;;;5071155;28;20211;-83
2022/07/15 08:41:41;;;;;;;1.40;1.37;;;18.00;78.40;;;;;;5070168;28;20187;-83
2022/07/15 08:44:07;;;;;;;1.07;0.97;;;18.00;77.80;;;;;;5070133;28;20418;-83
2022/07/15 08:46:34;;;;;;;1.43;1.00;;;18.00;77.80;;;;;;5069282;28;20456;-82
2022/07/15 08:49:12;;;;;;;1.00;0.90;;;18.00;78.00;;;;;;5069386;28;21005;-83
2022/07/15 08:51:42;;;;;;;0.90;0.80;;;18.00;77.30;;;;;;5069860;28;20445;-83
2022/07/15 08:54:08;;;;;;;1.27;1.03;;;18.10;77.80;;;;;;5069724;28;20412;-83
2022/07/15 08:56:35;;;;;;;1.73;1.20;;;18.30;77.60;;;;;;5068932;28;20512;-83
2022/07/15 08:59:01;;;;;;;2.10;1.63;;;18.50;78.30;;;;;;5070985;28;20209;-83
2022/07/15 09:01:32;;;;;;;1.00;0.90;;;18.60;76.80;;;;;;5064259;28;20956;-83
2022/07/15 09:03:58;;;;;;;1.10;1.10;;;18.70;76.90;;;;;;5057141;28;20425;-84
2022/07/15 09:06:36;;;;;;;8.37;1.57;;;18.70;76.10;;;;;;5069038;28;20429;-83
2022/07/15 09:09:26;;;;;;;0.93;0.83;;;18.70;76.50;;;;;;5069081;28;20471;-84
2022/07/15 09:11:58;;;;;;;1.00;0.90;;;18.70;76.90;;;;;;5068609;28;20428;-83
2022/07/15 09:14:28;;;;;;;1.20;1.10;;;18.70;77.40;;;;;;5068670;28;20980;-84
2022/07/15 09:17:09;;;;;;;1.13;1.03;;;18.80;77.70;;;;;;5069226;28;20417;-83
2022/07/15 09:19:57;;;;;;;1.87;1.30;;;18.90;77.60;;;;;;5068984;28;20421;-83
2022/07/15 09:22:24;;;;;;;2.80;1.30;;;18.90;77.10;;;;;;5069115;28;20417;-83
2022/07/15 09:25:00;;;;;;;0.90;0.80;;;18.80;77.80;;;;;;5069182;28;20428;-84
2022/07/15 09:27:37;;;;;;;5.60;1.17;;;18.80;78.20;;;;;;5061510;28;20464;-83
2022/07/15 09:36:02;;;;;;;5.93;1.47;;;18.90;78.30;;;;;;5070651;28;20436;-83
2022/07/15 09:38:33;;;;;;;0.70;0.67;;;18.90;78.10;;;;;;5071382;28;20437;-83
2022/07/15 09:40:59;;;;;;;1.00;0.90;;;19.00;76.80;;;;;;5068936;28;20448;-84
2022/07/15 09:43:25;;;;;;;1.00;0.90;;;19.10;75.90;;;;;;5068418;28;20449;-84
2022/07/15 09:46:01;;;;;;;1.77;1.00;;;19.20;77.70;;;;;;5069697;28;20449;-83
2022/07/15 09:48:28;;;;;;;0.90;0.80;;;19.40;75.90;;;;;;5056265;28;20244;-83
2022/07/15 09:50:58;;;;;;;1.00;0.90;;;19.40;76.60;;;;;;5070205;28;20512;-83
2022/07/15 09:53:24;;;;;;;3.53;1.23;;;19.40;77.10;;;;;;5073696;28;20911;-84
2022/07/15 09:55:50;;;;;;;0.90;0.90;;;19.40;76.90;;;;;;5072678;28;20425;-83
2022/07/15 09:58:18;;;;;;;4.63;1.83;;;19.30;77.80;;;;;;5072527;28;20445;-84
2022/07/15 10:00:43;;;;;;;1.00;1.00;;;19.40;77.30;;;;;;5072557;28;20933;-83
2022/07/15 10:03:11;;;;;;;1.57;1.27;;;19.30;77.90;;;;;;5073320;28;20417;-82
2022/07/15 10:05:39;;;;;;;1.33;1.23;;;19.30;76.80;;;;;;5071810;28;20189;-83
2022/07/15 10:08:08;;;;;;;14.03;2.13;;;19.20;76.80;;;;;;5066155;28;20452;-83
2022/07/15 10:10:35;;;;;;;1.00;0.90;;;19.20;77.00;;;;;;5072522;28;20461;-83
2022/07/15 10:13:34;;;;;;;5.60;1.10;;;19.20;77.50;;;;;;5072197;28;20413;-83
2022/07/15 10:16:11;;;;;;;1.47;1.43;;;19.20;77.80;;;;;;5063311;28;20425;-83
2022/07/15 10:18:49;;;;;;;1.00;0.90;;;19.30;76.80;;;;;;5071684;28;20432;-84
2022/07/15 10:21:30;;;;;;;1.27;1.17;;;19.30;76.80;;;;;;5072160;28;20425;-83
2022/07/15 10:24:05;;;;;;;1.10;1.00;;;19.30;76.30;;;;;;5068682;28;20430;-82
2022/07/15 10:27:02;;;;;;;1.20;1.10;;;19.20;76.30;;;;;;5064197;28;20810;-83
2022/07/15 10:29:31;;;;;;;1.00;0.90;;;19.20;77.50;;;;;;5063521;28;20904;-84
2022/07/15 10:31:59;;;;;;;3.73;1.17;;;19.20;77.30;;;;;;5072653;28;20417;-83
2022/07/15 10:34:31;;;;;;;1.20;1.13;;;19.20;78.00;;;;;;5072397;28;20512;-84
2022/07/15 10:36:58;;;;;;;1.17;1.13;;;19.30;78.30;;;;;;5071774;28;20505;-83
2022/07/15 10:39:48;;;;;;;2.30;0.90;;;19.40;77.50;;;;;;5072893;28;20656;-83
2022/07/15 10:42:14;;;;;;;0.93;0.90;;;19.40;77.60;;;;;;5071601;28;20417;-84
2022/07/15 10:44:58;;;;;;;1.00;0.90;;;19.60;78.00;;;;;;5072170;28;20483;-84
2022/07/15 10:47:25;;;;;;;1.17;1.10;;;19.80;76.20;;;;;;5072640;28;20491;-83
2022/07/15 10:49:51;;;;;;;4.53;1.63;;;19.90;75.00;;;;;;5071301;28;20534;-83
2022/07/15 10:52:25;;;;;;;1.00;0.90;;;19.90;75.70;;;;;;5072257;28;20481;-83
2022/07/15 10:54:59;;;;;;;0.97;0.87;;;19.80;75.10;;;;;;5071516;28;20450;-83
2022/07/15 10:57:40;;;;;;;1.17;0.80;;;19.80;76.20;;;;;;5071449;28;20456;-84
2022/07/15 11:00:15;;;;;;;1.00;0.90;;;19.80;75.70;;;;;;5071434;28;20432;-83
2022/07/15 11:03:12;;;;;;;0.90;0.80;;;19.90;76.40;;;;;;5059218;28;20423;-82
2022/07/15 11:05:52;;;;;;;2.50;1.43;;;20.10;76.10;;;;;;5062063;28;20444;-83
2022/07/15 11:08:33;;;;;;;0.90;0.80;;;20.40;75.00;;;;;;5072686;28;20812;-83
2022/07/15 11:11:14;;;;;;;1.00;0.90;;;20.60;73.20;;;;;;5072086;28;20417;-84
2022/07/15 11:13:45;;;;;;;1.37;1.20;;;20.60;73.20;;;;;;5071887;28;20455;-83
2022/07/15 11:16:16;;;;;;;1.10;1.00;;;20.50;73.30;;;;;;5071969;28;20425;-83
2022/07/15 11:18:49;;;;;;;1.10;1.00;;;20.40;73.00;;;;;;5072434;28;20520;-83
2022/07/15 11:21:16;;;;;;;1.73;1.17;;;20.30;72.90;;;;;;5071437;28;20429;-82
2022/07/15 11:23:45;;;;;;;1.00;0.90;;;20.40;73.60;;;;;;5066356;28;20425;-83
2022/07/15 11:26:11;;;;;;;1.00;0.90;;;20.50;73.50;;;;;;5054575;28;20488;-83
2022/07/15 11:28:38;;;;;;;1.13;0.90;;;20.70;73.80;;;;;;5072253;28;20472;-83
2022/07/15 11:31:03;;;;;;;1.37;1.33;;;20.80;73.10;;;;;;5072443;28;20256;-82
2022/07/15 11:33:30;;;;;;;1.10;1.00;;;20.80;72.30;;;;;;5073404;28;20856;-83
2022/07/15 11:35:57;;;;;;;1.07;0.97;;;20.60;73.30;;;;;;5071081;28;20433;-83
2022/07/15 11:38:27;;;;;;;2.40;1.10;;;20.60;75.50;;;;;;5070813;28;20839;-82
2022/07/15 11:46:26;;;;;;;0.90;0.80;;;20.90;73.80;;;;;;5072993;28;20424;-83
2022/07/15 11:48:52;;;;;;;1.23;1.00;;;21.00;73.10;;;;;;5070796;28;20472;-83
2022/07/15 11:51:25;;;;;;;1.03;0.93;;;21.10;73.70;;;;;;5070739;28;20471;-83
2022/07/15 11:53:51;;;;;;;1.00;0.90;;;21.20;72.60;;;;;;5070544;28;20428;-83
2022/07/15 11:56:16;;;;;;;1.20;1.10;;;21.10;72.60;;;;;;5071708;28;20421;-83
2022/07/15 11:58:45;;;;;;;1.63;1.20;;;21.10;72.60;;;;;;5073321;28;20233;-83
2022/07/15 12:01:17;;;;;;;0.90;0.80;;;21.00;73.10;;;;;;5071675;28;20195;-83
2022/07/15 12:03:54;;;;;;;1.77;1.03;;;20.90;72.60;;;;;;5072476;28;20459;-84
2022/07/15 12:06:22;;;;;;;1.00;0.90;;;20.80;73.20;;;;;;5071786;28;20478;-82
2022/07/15 12:08:47;;;;;;;1.53;1.03;;;20.90;74.00;;;;;;5060160;28;20461;-82
2022/07/15 12:11:28;;;;;;;3.43;1.93;;;21.10;73.60;;;;;;5072850;28;20874;-83
2022/07/15 12:13:58;;;;;;;1.00;0.90;;;21.10;73.40;;;;;;5057262;28;20187;-83
2022/07/15 12:16:34;;;;;;;1.30;1.20;;;21.20;73.40;;;;;;5057648;28;20429;-83
2022/07/15 12:19:15;;;;;;;1.30;1.20;;;21.30;74.20;;;;;;5071858;28;20432;-82
2022/07/15 12:21:42;;;;;;;0.90;0.80;;;21.30;72.60;;;;;;5074316;28;20417;-82
2022/07/15 12:24:16;;;;;;;1.03;0.93;;;21.20;72.60;;;;;;5073259;28;20419;-82
2022/07/15 12:26:56;;;;;;;1.43;1.10;;;21.10;72.40;;;;;;5072923;28;20405;-82
2022/07/15 12:29:32;;;;;;;1.33;1.23;;;21.00;72.90;;;;;;5072776;28;20512;-82
2022/07/15 12:32:06;;;;;;;1.00;0.90;;;20.90;72.90;;;;;;5070893;28;20783;-83
2022/07/15 12:34:47;;;;;;;1.20;1.10;;;21.00;72.70;;;;;;5070635;28;20429;-82
2022/07/15 12:37:18;;;;;;;1.03;0.93;;;21.00;73.50;;;;;;5078483;28;20420;-82
2022/07/15 12:40:01;;;;;;;1.00;0.90;;;20.90;73.90;;;;;;5075548;28;20428;-83
2022/07/15 12:42:30;;;;;;;1.00;0.90;;;20.90;73.70;;;;;;5069396;28;20409;-82
2022/07/15 12:45:20;;;;;;;2.90;0.83;;;20.90;73.90;;;;;;5071098;28;20423;-82
2022/07/15 12:48:05;;;;;;;4.00;1.30;;;20.90;74.00;;;;;;5071920;28;21031;-82
2022/07/15 12:50:51;;;;;;;1.00;0.90;;;21.00;73.70;;;;;;5067462;28;20461;-83
2022/07/15 12:53:22;;;;;;;4.40;1.20;;;21.00;73.90;;;;;;5063532;28;20444;-83
2022/07/15 12:55:50;;;;;;;1.30;1.20;;;21.10;74.10;;;;;;5076377;28;20471;-83
2022/07/15 12:58:22;;;;;;;0.93;0.83;;;21.20;74.10;;;;;;5072099;28;20441;-82
2022/07/15 13:00:48;;;;;;;0.90;0.80;;;21.20;73.10;;;;;;5056398;28;20414;-83
2022/07/15 13:03:16;;;;;;;1.93;1.47;;;21.30;74.20;;;;;;5054165;28;20758;-82
2022/07/15 13:05:52;;;;;;;1.10;1.07;;;21.50;74.30;;;;;;5057507;28;20174;-82